createdAt,value
2023-04-15T00:00:54.277Z,25.00
2023-04-15T00:01:54.386Z,25.00
2023-04-15T00:02:54.451Z,25.00
2023-04-15T00:03:54.324Z,25.00
2023-04-15T00:04:54.316Z,25.35
2023-04-15T00:05:54.284Z,25.00
2023-04-15T00:06:54.485Z,25.00
2023-04-15T00:07:54.291Z,25.00
2023-04-15T00:08:54.295Z,24.47
2023-04-15T00:09:54.288Z,25.00
2023-04-15T00:10:54.314Z,27.02
2023-04-15T00:11:54.286Z,25.00
2023-04-15T00:12:54.479Z,25.00
2023-04-15T00:13:54.518Z,25.08
2023-04-15T00:14:54.286Z,25.65
2023-04-15T00:15:54.287Z,27.08
2023-04-15T00:16:54.305Z,26.34
2023-04-15T00:17:54.315Z,25.54
2023-04-15T00:18:54.288Z,25.00
2023-04-15T00:19:54.283Z,27.40
2023-04-15T00:20:54.299Z,26.76
2023-04-15T00:21:54.299Z,26.77
2023-04-15T00:22:54.304Z,28.21
2023-04-15T00:23:54.326Z,26.36
2023-04-15T00:24:54.306Z,27.11
2023-04-15T00:25:54.306Z,25.00
2023-04-15T00:26:54.323Z,26.42
2023-04-15T00:27:54.306Z,25.00
2023-04-15T00:28:54.312Z,25.93
2023-04-15T00:29:54.301Z,27.97
2023-04-15T00:30:54.335Z,28.46
2023-04-15T00:31:54.297Z,25.55
2023-04-15T00:32:54.345Z,26.57
2023-04-15T00:33:54.352Z,25.69
2023-04-15T00:34:54.300Z,26.54
2023-04-15T00:35:54.297Z,25.76
2023-04-15T00:36:54.293Z,26.58
2023-04-15T00:37:54.300Z,28.34
2023-04-15T00:38:54.299Z,27.69
2023-04-15T00:39:54.290Z,28.86
2023-04-15T00:40:54.278Z,27.68
2023-04-15T00:41:54.291Z,29.62
2023-04-15T00:42:54.303Z,25.73
2023-04-15T00:43:54.276Z,25.76
2023-04-15T00:44:54.273Z,28.05
2023-04-15T00:45:54.332Z,25.96
2023-04-15T00:46:54.263Z,26.93
2023-04-15T00:47:54.292Z,28.68
2023-04-15T00:48:54.261Z,27.22
2023-04-15T00:49:54.273Z,26.78
2023-04-15T00:50:54.273Z,25.47
2023-04-15T00:51:54.296Z,28.45
2023-04-15T00:52:54.330Z,27.32
2023-04-15T00:53:54.331Z,28.79
2023-04-15T00:54:54.366Z,27.01
2023-04-15T00:55:54.379Z,25.00
2023-04-15T00:56:54.399Z,28.61
2023-04-15T00:57:54.428Z,26.56
2023-04-15T00:58:54.472Z,26.03
2023-04-15T00:59:54.485Z,26.79
2023-04-15T01:00:54.598Z,28.75
2023-04-15T01:01:54.657Z,28.82
2023-04-15T01:02:54.694Z,27.25
2023-04-15T01:03:54.659Z,27.93
2023-04-15T01:04:54.602Z,28.83
2023-04-15T01:05:54.617Z,27.90
2023-04-15T01:06:54.642Z,26.81
2023-04-15T01:07:54.663Z,25.00
2023-04-15T01:08:54.678Z,28.81
2023-04-15T01:09:54.705Z,26.37
2023-04-15T01:10:54.733Z,26.97
2023-04-15T01:11:54.744Z,25.84
2023-04-15T01:12:54.758Z,29.65
2023-04-15T01:13:54.783Z,29.71
2023-04-15T01:14:54.826Z,28.05
2023-04-15T01:15:54.861Z,25.00
2023-04-15T01:16:54.840Z,29.31
2023-04-15T01:17:54.882Z,27.93
2023-04-15T01:18:54.890Z,29.26
2023-04-15T01:19:54.903Z,26.67
2023-04-15T01:20:54.926Z,28.93
2023-04-15T01:21:54.943Z,28.71
2023-04-15T01:22:54.985Z,28.99
2023-04-15T01:23:54.988Z,26.13
2023-04-15T01:24:55.017Z,28.61
2023-04-15T01:25:55.030Z,29.65
2023-04-15T01:26:55.068Z,26.15
2023-04-15T01:27:55.086Z,28.11
2023-04-15T01:28:55.102Z,31.50
2023-04-15T01:29:55.134Z,30.42
2023-04-15T01:30:55.177Z,27.41
2023-04-15T01:31:55.202Z,28.76
2023-04-15T01:32:55.256Z,27.81
2023-04-15T01:33:55.228Z,27.78
2023-04-15T01:34:55.241Z,27.15
2023-04-15T01:35:55.270Z,26.43
2023-04-15T01:36:55.289Z,27.42
2023-04-15T01:37:55.313Z,27.76
2023-04-15T01:38:55.361Z,28.61
2023-04-15T01:39:55.362Z,27.84
2023-04-15T01:40:55.384Z,25.84
2023-04-15T01:41:55.420Z,26.98
2023-04-15T01:42:55.442Z,27.81
2023-04-15T01:43:55.460Z,29.50
2023-04-15T01:44:55.469Z,29.69
2023-04-15T01:45:55.495Z,29.08
2023-04-15T01:46:55.627Z,27.25
2023-04-15T01:47:55.578Z,25.99
2023-04-15T01:48:55.576Z,27.03
2023-04-15T01:49:55.596Z,26.29
2023-04-15T01:50:55.619Z,29.56
2023-04-15T01:51:55.641Z,28.85
2023-04-15T01:52:55.653Z,28.76
2023-04-15T01:53:55.720Z,27.47
2023-04-15T01:54:55.712Z,29.08
2023-04-15T01:55:55.726Z,26.63
2023-04-15T01:56:55.756Z,25.00
2023-04-15T01:57:55.773Z,28.04
2023-04-15T01:58:55.803Z,27.74
2023-04-15T01:59:55.813Z,25.89
2023-04-15T02:00:55.921Z,28.50
2023-04-15T02:01:55.944Z,29.50
2023-04-15T02:02:55.947Z,27.49
2023-04-15T02:03:55.932Z,26.85
2023-04-15T02:04:55.954Z,28.82
2023-04-15T02:05:55.961Z,25.42
2023-04-15T02:06:55.983Z,27.60
2023-04-15T02:07:55.996Z,26.76
2023-04-15T02:08:56.024Z,27.00
2023-04-15T02:09:56.053Z,29.88
2023-04-15T02:10:56.073Z,29.98
2023-04-15T02:11:56.103Z,27.90
2023-04-15T02:12:56.126Z,27.43
2023-04-15T02:13:56.145Z,27.54
2023-04-15T02:14:56.165Z,27.45
2023-04-15T02:15:56.205Z,25.00
2023-04-15T02:16:56.325Z,25.58
2023-04-15T02:17:56.282Z,27.33
2023-04-15T02:18:56.280Z,25.50
2023-04-15T02:19:56.281Z,27.77
2023-04-15T02:20:56.311Z,26.29
2023-04-15T02:21:56.325Z,29.40
2023-04-15T02:22:56.351Z,27.74
2023-04-15T02:23:56.373Z,31.33
2023-04-15T02:24:56.388Z,29.35
2023-04-15T02:25:56.423Z,28.78
2023-04-15T02:26:56.422Z,28.14
2023-04-15T02:27:56.446Z,26.21
2023-04-15T02:28:56.483Z,28.79
2023-04-15T02:29:56.480Z,27.59
2023-04-15T02:30:56.502Z,26.13
2023-04-15T02:31:56.568Z,26.01
2023-04-15T02:32:56.591Z,26.50
2023-04-15T02:33:56.576Z,26.64
2023-04-15T02:34:56.628Z,28.04
2023-04-15T02:35:56.623Z,27.41
2023-04-15T02:36:56.648Z,29.68
2023-04-15T02:37:56.675Z,29.58
2023-04-15T02:38:56.694Z,25.00
2023-04-15T02:39:56.724Z,26.06
2023-04-15T02:40:56.745Z,28.81
2023-04-15T02:41:56.764Z,28.56
2023-04-15T02:42:56.790Z,27.74
2023-04-15T02:43:56.821Z,26.85
2023-04-15T02:44:56.842Z,28.15
2023-04-15T02:45:56.888Z,29.80
2023-04-15T02:46:56.886Z,29.33
2023-04-15T02:47:56.955Z,30.05
2023-04-15T02:48:56.935Z,27.40
2023-04-15T02:49:56.960Z,26.40
2023-04-15T02:50:57.007Z,28.91
2023-04-15T02:51:57.013Z,30.13
2023-04-15T02:52:57.037Z,28.64
2023-04-15T02:53:57.060Z,27.23
2023-04-15T02:54:57.091Z,27.38
2023-04-15T02:55:57.113Z,28.62
2023-04-15T02:56:57.138Z,28.71
2023-04-15T02:57:57.168Z,26.15
2023-04-15T02:58:57.188Z,28.19
2023-04-15T02:59:57.213Z,29.02
2023-04-15T03:00:57.269Z,29.04
2023-04-15T03:01:57.296Z,28.29
2023-04-15T03:02:57.433Z,26.95
2023-04-15T03:03:57.446Z,27.27
2023-04-15T03:04:57.353Z,27.06
2023-04-15T03:05:57.372Z,26.32
2023-04-15T03:06:57.429Z,25.69
2023-04-15T03:07:57.411Z,26.52
2023-04-15T03:08:57.450Z,26.41
2023-04-15T03:09:57.470Z,27.45
2023-04-15T03:10:57.488Z,29.69
2023-04-15T03:11:57.515Z,29.08
2023-04-15T03:12:57.535Z,27.62
2023-04-15T03:13:57.565Z,28.74
2023-04-15T03:14:57.589Z,27.04
2023-04-15T03:15:57.708Z,28.62
2023-04-15T03:16:57.640Z,29.37
2023-04-15T03:17:57.687Z,27.29
2023-04-15T03:18:57.696Z,31.25
2023-04-15T03:19:57.870Z,29.97
2023-04-15T03:20:57.742Z,26.19
2023-04-15T03:21:57.774Z,31.69
2023-04-15T03:22:57.826Z,30.45
2023-04-15T03:23:57.828Z,27.91
2023-04-15T03:24:57.880Z,27.45
2023-04-15T03:25:57.895Z,27.77
2023-04-15T03:26:57.926Z,28.70
2023-04-15T03:27:57.941Z,27.79
2023-04-15T03:28:58.009Z,27.12
2023-04-15T03:29:57.998Z,27.48
2023-04-15T03:30:58.043Z,27.90
2023-04-15T03:31:58.021Z,26.70
2023-04-15T03:32:58.151Z,26.93
2023-04-15T03:33:58.061Z,25.42
2023-04-15T03:34:58.077Z,27.05
2023-04-15T03:35:58.098Z,25.68
2023-04-15T03:36:58.112Z,25.85
2023-04-15T03:37:58.121Z,26.53
2023-04-15T03:38:58.330Z,28.28
2023-04-15T03:39:58.162Z,26.56
2023-04-15T03:40:58.183Z,26.69
2023-04-15T03:41:58.196Z,29.22
2023-04-15T03:42:58.200Z,27.14
2023-04-15T03:43:58.224Z,28.66
2023-04-15T03:44:58.237Z,28.50
2023-04-15T03:45:59.692Z,26.78
2023-04-15T03:46:58.265Z,35.09
2023-04-15T03:48:07.297Z,30.75
2023-04-15T03:48:58.237Z,31.10
2023-04-15T03:49:58.235Z,32.10
2023-04-15T03:50:58.237Z,31.41
2023-04-15T03:51:58.215Z,30.92
2023-04-15T03:52:58.208Z,29.72
2023-04-15T03:53:58.226Z,30.78
2023-04-15T03:54:58.236Z,27.63
2023-04-15T03:55:58.242Z,28.16
2023-04-15T03:56:58.204Z,30.26
2023-04-15T03:57:58.189Z,27.97
2023-04-15T03:58:58.216Z,27.84
2023-04-15T03:59:58.179Z,28.69
2023-04-15T04:00:58.187Z,26.05
2023-04-15T04:01:58.289Z,26.83
2023-04-15T04:02:58.340Z,25.39
2023-04-15T04:03:58.253Z,26.55
2023-04-15T04:04:58.136Z,27.23
2023-04-15T04:05:58.130Z,26.82
2023-04-15T04:06:58.125Z,26.47
2023-04-15T04:07:58.122Z,28.26
2023-04-15T04:08:58.127Z,25.76
2023-04-15T04:09:58.117Z,25.00
2023-04-15T04:10:58.133Z,26.99
2023-04-15T04:11:58.102Z,27.03
2023-04-15T04:12:58.092Z,27.41
2023-04-15T04:13:58.088Z,25.99
2023-04-15T04:14:58.093Z,29.08
2023-04-15T04:15:58.165Z,26.61
2023-04-15T04:16:58.110Z,28.56
2023-04-15T04:17:58.104Z,26.93
2023-04-15T04:18:58.054Z,29.60
2023-04-15T04:19:58.057Z,28.08
2023-04-15T04:20:58.046Z,29.28
2023-04-15T04:21:58.043Z,27.36
2023-04-15T04:22:58.030Z,27.79
2023-04-15T04:23:58.031Z,27.35
2023-04-15T04:24:58.035Z,27.35
2023-04-15T04:25:58.007Z,27.55
2023-04-15T04:26:58.027Z,28.38
2023-04-15T04:27:57.987Z,28.49
2023-04-15T04:28:57.983Z,27.04
2023-04-15T04:29:57.980Z,27.98
2023-04-15T04:30:57.952Z,27.77
2023-04-15T04:31:57.996Z,28.25
2023-04-15T04:32:57.980Z,25.73
2023-04-15T04:33:57.926Z,27.66
2023-04-15T04:34:57.907Z,26.78
2023-04-15T04:35:57.889Z,28.05
2023-04-15T04:36:57.901Z,27.82
2023-04-15T04:37:57.883Z,28.01
2023-04-15T04:38:57.882Z,29.02
2023-04-15T04:39:57.861Z,26.66
2023-04-15T04:40:57.841Z,25.42
2023-04-15T04:41:57.830Z,27.66
2023-04-15T04:42:57.852Z,27.20
2023-04-15T04:43:57.808Z,27.34
2023-04-15T04:44:57.804Z,28.15
2023-04-15T04:45:57.811Z,27.54
2023-04-15T04:46:57.998Z,28.08
2023-04-15T04:47:57.818Z,27.00
2023-04-15T04:48:57.755Z,27.79
2023-04-15T04:49:57.750Z,28.12
2023-04-15T04:50:57.735Z,27.29
2023-04-15T04:51:57.731Z,25.93
2023-04-15T04:52:57.728Z,28.14
2023-04-15T04:53:57.711Z,27.69
2023-04-15T04:54:57.696Z,27.85
2023-04-15T04:55:57.688Z,27.93
2023-04-15T04:56:57.685Z,27.39
2023-04-15T04:57:57.683Z,26.19
2023-04-15T04:58:57.731Z,27.72
2023-04-15T04:59:57.699Z,26.12
2023-04-15T05:00:57.758Z,28.24
2023-04-15T05:01:57.702Z,28.09
2023-04-15T05:02:57.886Z,27.64
2023-04-15T05:03:57.745Z,27.32
2023-04-15T05:04:57.654Z,28.27
2023-04-15T05:05:57.663Z,26.67
2023-04-15T05:06:57.659Z,26.48
2023-04-15T05:07:57.645Z,26.73
2023-04-15T05:08:57.670Z,25.60
2023-04-15T05:09:57.655Z,26.32
2023-04-15T05:10:57.661Z,25.52
2023-04-15T05:11:57.631Z,27.37
2023-04-15T05:12:57.630Z,26.45
2023-04-15T05:13:57.674Z,25.00
2023-04-15T05:14:57.719Z,25.42
2023-04-15T05:15:57.762Z,27.77
2023-04-15T05:16:57.735Z,24.67
2023-04-15T05:17:57.798Z,26.59
2023-04-15T05:18:57.759Z,28.23
2023-04-15T05:19:57.739Z,26.07
2023-04-15T05:20:57.738Z,25.79
2023-04-15T05:21:57.722Z,27.72
2023-04-15T05:22:57.717Z,28.91
2023-04-15T05:23:57.717Z,26.77
2023-04-15T05:24:57.710Z,27.75
2023-04-15T05:25:57.705Z,27.01
2023-04-15T05:26:57.698Z,26.62
2023-04-15T05:27:57.690Z,27.07
2023-04-15T05:28:57.705Z,26.59
2023-04-15T05:29:57.700Z,25.00
2023-04-15T05:30:57.762Z,25.11
2023-04-15T05:31:57.670Z,27.48
2023-04-15T05:32:57.748Z,27.99
2023-04-15T05:33:57.682Z,29.50
2023-04-15T05:34:57.672Z,27.37
2023-04-15T05:35:57.701Z,25.98
2023-04-15T05:36:57.680Z,25.00
2023-04-15T05:37:57.683Z,29.18
2023-04-15T05:38:57.705Z,28.92
2023-04-15T05:39:57.718Z,26.19
2023-04-15T05:40:57.717Z,28.19
2023-04-15T05:41:57.724Z,29.84
2023-04-15T05:42:57.703Z,30.41
2023-04-15T05:43:57.708Z,25.40
2023-04-15T05:44:57.715Z,28.09
2023-04-15T05:45:57.761Z,28.27
2023-04-15T05:46:57.743Z,27.47
2023-04-15T05:47:57.743Z,27.88
2023-04-15T05:48:57.705Z,27.38
2023-04-15T05:49:57.721Z,25.39
2023-04-15T05:50:57.722Z,27.48
2023-04-15T05:51:57.722Z,29.44
2023-04-15T05:52:57.708Z,26.94
2023-04-15T05:53:57.718Z,33.95
2023-04-15T05:54:57.722Z,30.54
2023-04-15T05:55:57.704Z,28.01
2023-04-15T05:56:57.738Z,27.98
2023-04-15T05:57:57.706Z,26.42
2023-04-15T05:58:57.712Z,30.57
2023-04-15T05:59:58.123Z,30.86
2023-04-15T06:00:57.720Z,29.97
2023-04-15T06:01:57.767Z,29.95
2023-04-15T06:02:57.990Z,31.05
2023-04-15T06:03:57.834Z,30.38
2023-04-15T06:04:57.752Z,33.04
2023-04-15T06:05:57.707Z,31.00
2023-04-15T06:06:57.700Z,30.45
2023-04-15T06:07:57.714Z,28.64
2023-04-15T06:08:57.687Z,26.56
2023-04-15T06:09:57.687Z,26.90
2023-04-15T06:10:57.683Z,29.98
2023-04-15T06:11:57.692Z,25.14
2023-04-15T06:12:57.681Z,27.70
2023-04-15T06:13:57.672Z,26.00
2023-04-15T06:14:59.956Z,27.28
2023-04-15T06:15:57.666Z,26.25
2023-04-15T06:16:57.649Z,25.47
2023-04-15T06:17:57.648Z,25.00
2023-04-15T06:18:57.651Z,27.78
2023-04-15T06:19:57.614Z,25.00
2023-04-15T06:20:57.630Z,28.06
2023-04-15T06:21:57.589Z,25.00
2023-04-15T06:22:57.584Z,30.37
2023-04-15T06:23:57.570Z,25.00
2023-04-15T06:24:57.555Z,26.79
2023-04-15T06:25:57.551Z,25.00
2023-04-15T06:26:57.556Z,25.00
2023-04-15T06:27:57.611Z,27.50
2023-04-15T06:28:57.529Z,34.77
2023-04-15T06:29:57.532Z,38.08
2023-04-15T06:30:57.538Z,29.49
2023-04-15T06:31:57.640Z,30.50
2023-04-15T06:32:57.586Z,29.28
2023-04-15T06:33:57.508Z,26.85
2023-04-15T06:34:57.583Z,27.21
2023-04-15T06:35:57.489Z,25.00
2023-04-15T06:36:57.494Z,26.91
2023-04-15T06:37:57.464Z,30.57
2023-04-15T06:38:57.453Z,32.97
2023-04-15T06:39:57.447Z,30.58
2023-04-15T06:40:57.426Z,36.79
2023-04-15T06:41:57.450Z,33.50
2023-04-15T06:42:57.414Z,30.81
2023-04-15T06:43:57.400Z,28.97
2023-04-15T06:44:57.388Z,30.89
2023-04-15T06:45:57.426Z,32.13
2023-04-15T06:46:57.394Z,27.14
2023-04-15T06:47:57.468Z,28.32
2023-04-15T06:48:57.412Z,25.00
2023-04-15T06:49:57.402Z,29.02
2023-04-15T06:50:57.363Z,31.12
2023-04-15T06:51:57.337Z,32.23
2023-04-15T06:52:57.320Z,28.30
2023-04-15T06:53:57.302Z,25.00
2023-04-15T06:54:57.334Z,26.80
2023-04-15T06:55:57.281Z,26.12
2023-04-15T06:56:57.294Z,26.86
2023-04-15T06:57:57.277Z,27.07
2023-04-15T06:58:57.281Z,25.00
2023-04-15T06:59:57.258Z,27.58
2023-04-15T07:00:57.281Z,29.38
2023-04-15T07:01:57.318Z,28.53
2023-04-15T07:02:57.291Z,25.00
2023-04-15T07:03:57.323Z,30.59
2023-04-15T07:04:57.239Z,27.56
2023-04-15T07:05:57.235Z,26.95
2023-04-15T07:06:57.296Z,25.00
2023-04-15T07:07:57.237Z,27.78
2023-04-15T07:08:57.213Z,25.44
2023-04-15T07:09:57.218Z,25.18
2023-04-15T07:10:57.213Z,30.68
2023-04-15T07:11:57.199Z,37.83
2023-04-15T07:12:57.186Z,37.78
2023-04-15T07:13:57.195Z,39.10
2023-04-15T07:14:57.159Z,22.93
2023-04-15T07:15:57.162Z,27.89
2023-04-15T07:16:57.174Z,30.64
2023-04-15T07:17:57.207Z,29.65
2023-04-15T07:18:57.144Z,29.17
2023-04-15T07:19:57.205Z,29.57
2023-04-15T07:20:57.088Z,29.97
2023-04-15T07:21:57.067Z,28.15
2023-04-15T07:22:57.167Z,24.97
2023-04-15T07:23:57.049Z,37.67
2023-04-15T07:24:57.040Z,39.60
2023-04-15T07:25:57.050Z,33.04
2023-04-15T07:26:58.652Z,26.38
2023-04-15T07:27:57.019Z,26.69
2023-04-15T07:28:57.003Z,26.55
2023-04-15T07:29:57.011Z,22.00
2023-04-15T07:30:57.032Z,19.64
2023-04-15T07:31:56.988Z,30.99
2023-04-15T07:32:57.015Z,38.38
2023-04-15T07:33:56.956Z,33.62
2023-04-15T07:34:56.965Z,26.13
2023-04-15T07:35:56.927Z,27.10
2023-04-15T07:36:56.909Z,30.34
2023-04-15T07:37:56.904Z,25.95
2023-04-15T07:38:56.937Z,27.79
2023-04-15T07:39:56.966Z,25.00
2023-04-15T07:40:56.961Z,27.87
2023-04-15T07:41:56.877Z,36.87
2023-04-15T07:42:56.867Z,40.18
2023-04-15T07:43:56.909Z,28.45
2023-04-15T07:44:56.853Z,34.76
2023-04-15T07:45:56.867Z,38.19
2023-04-15T07:46:56.829Z,29.77
2023-04-15T07:47:56.873Z,32.14
2023-04-15T07:48:56.821Z,32.20
2023-04-15T07:49:56.797Z,27.67
2023-04-15T07:50:56.779Z,29.13
2023-04-15T07:51:56.793Z,37.25
2023-04-15T07:52:56.761Z,31.18
2023-04-15T07:53:56.756Z,36.02
2023-04-15T07:54:56.769Z,27.00
2023-04-15T07:55:56.737Z,34.84
2023-04-15T07:56:56.729Z,32.17
2023-04-15T07:57:56.761Z,28.86
2023-04-15T07:58:56.719Z,29.10
2023-04-15T07:59:56.712Z,32.85
2023-04-15T08:00:56.701Z,43.07
2023-04-15T08:01:56.746Z,50.30
2023-04-15T08:02:56.811Z,48.26
2023-04-15T08:03:56.841Z,34.80
2023-04-15T08:04:56.701Z,36.66
2023-04-15T08:05:56.635Z,49.19
2023-04-15T08:06:56.631Z,40.65
2023-04-15T08:07:56.649Z,27.54
2023-04-15T08:08:56.628Z,43.40
2023-04-15T08:09:56.628Z,34.31
2023-04-15T08:10:56.631Z,28.17
2023-04-15T08:11:56.625Z,49.55
2023-04-15T08:12:56.590Z,40.51
2023-04-15T08:13:56.573Z,39.65
2023-04-15T08:14:56.593Z,39.12
2023-04-15T08:15:56.572Z,45.27
2023-04-15T08:16:56.548Z,42.44
2023-04-15T08:17:56.596Z,50.79
2023-04-15T08:18:56.538Z,44.93
2023-04-15T08:19:56.522Z,51.89
2023-04-15T08:20:56.522Z,58.49
2023-04-15T08:21:56.503Z,43.78
2023-04-15T08:22:56.489Z,26.60
2023-04-15T08:23:56.518Z,34.65
2023-04-15T08:24:56.543Z,40.51
2023-04-15T08:25:56.531Z,45.25
2023-04-15T08:26:56.579Z,45.08
2023-04-15T08:27:56.593Z,38.69
2023-04-15T08:28:56.621Z,33.04
2023-04-15T08:29:56.587Z,25.88
2023-04-15T08:30:56.576Z,25.00
2023-04-15T08:31:56.657Z,25.00
2023-04-15T08:32:57.291Z,28.71
2023-04-15T08:33:56.626Z,34.70
2023-04-15T08:34:56.678Z,49.21
2023-04-15T08:35:56.770Z,55.24
2023-04-15T08:36:57.121Z,55.43
2023-04-15T08:37:56.580Z,37.63
2023-04-15T08:38:56.530Z,46.89
2023-04-15T08:39:55.770Z,37.90
2023-04-15T08:40:56.965Z,38.60
2023-04-15T08:41:56.746Z,43.00
2023-04-15T08:42:56.818Z,50.70
2023-04-15T08:43:56.732Z,37.16
2023-04-15T08:44:56.721Z,46.51
2023-04-15T08:45:56.717Z,50.12
2023-04-15T08:46:56.729Z,52.95
2023-04-15T08:47:56.746Z,39.57
2023-04-15T08:48:56.692Z,42.00
2023-04-15T08:49:56.708Z,51.98
2023-04-15T08:50:56.692Z,56.56
2023-04-15T08:51:56.682Z,52.72
2023-04-15T08:52:56.659Z,36.67
2023-04-15T08:53:56.642Z,31.97
2023-04-15T08:54:56.648Z,41.65
2023-04-15T08:55:56.605Z,55.40
2023-04-15T08:56:56.617Z,55.89
2023-04-15T08:57:56.580Z,59.55
2023-04-15T08:58:56.603Z,60.94
2023-04-15T08:59:56.565Z,52.15
2023-04-15T09:00:56.589Z,54.07
2023-04-15T09:01:56.578Z,65.13
2023-04-15T09:02:56.608Z,50.61
2023-04-15T09:03:56.600Z,59.28
2023-04-15T09:04:56.534Z,59.22
2023-04-15T09:05:56.536Z,60.34
2023-04-15T09:06:56.525Z,63.50
2023-04-15T09:07:56.586Z,55.94
2023-04-15T09:08:56.618Z,57.11
2023-04-15T09:09:56.673Z,48.02
2023-04-15T09:10:56.726Z,47.17
2023-04-15T09:11:56.782Z,60.21
2023-04-15T09:12:56.799Z,59.24
2023-04-15T09:13:56.832Z,64.63
2023-04-15T09:14:56.881Z,57.67
2023-04-15T09:15:56.892Z,57.84
2023-04-15T09:16:57.061Z,49.08
2023-04-15T09:17:57.143Z,59.53
2023-04-15T09:18:57.032Z,67.49
2023-04-15T09:19:57.038Z,54.90
2023-04-15T09:20:57.067Z,38.73
2023-04-15T09:21:58.813Z,54.22
2023-04-15T09:22:57.074Z,56.20
2023-04-15T09:23:57.064Z,61.69
2023-04-15T09:24:57.077Z,66.75
2023-04-15T09:25:57.025Z,62.64
2023-04-15T09:26:57.030Z,55.33
2023-04-15T09:27:57.008Z,47.27
2023-04-15T09:28:56.995Z,56.91
2023-04-15T09:29:57.001Z,61.08
2023-04-15T09:30:57.067Z,50.06
2023-04-15T09:31:56.966Z,39.71
2023-04-15T09:32:56.984Z,44.02
2023-04-15T09:33:56.949Z,39.71
2023-04-15T09:34:56.934Z,27.89
2023-04-15T09:35:56.929Z,43.16
2023-04-15T09:36:56.942Z,40.27
2023-04-15T09:37:56.914Z,40.17
2023-04-15T09:38:56.890Z,42.33
2023-04-15T09:39:56.888Z,37.04
2023-04-15T09:40:56.867Z,38.79
2023-04-15T09:41:56.857Z,36.98
2023-04-15T09:42:56.864Z,28.67
2023-04-15T09:43:56.852Z,33.63
2023-04-15T09:44:56.833Z,34.66
2023-04-15T09:45:56.834Z,27.02
2023-04-15T09:46:56.829Z,29.92
2023-04-15T09:47:57.751Z,35.98
2023-04-15T09:48:56.794Z,33.24
2023-04-15T09:49:56.818Z,40.87
2023-04-15T09:50:56.778Z,41.57
2023-04-15T09:52:05.132Z,40.47
2023-04-15T09:52:56.758Z,40.75
2023-04-15T09:53:56.745Z,40.96
2023-04-15T09:54:56.766Z,42.97
2023-04-15T09:55:56.736Z,46.42
2023-04-15T09:56:56.728Z,37.95
2023-04-15T09:57:56.721Z,36.58
2023-04-15T09:58:56.713Z,31.41
2023-04-15T09:59:56.710Z,25.90
2023-04-15T10:00:56.905Z,27.06
2023-04-15T10:01:56.774Z,36.26
2023-04-15T10:02:56.865Z,53.47
2023-04-15T10:03:56.773Z,38.20
2023-04-15T10:04:56.679Z,47.74
2023-04-15T10:05:56.678Z,33.74
2023-04-15T10:06:56.673Z,35.89
2023-04-15T10:07:56.665Z,41.19
2023-04-15T10:08:56.658Z,24.02
2023-04-15T10:09:56.652Z,37.91
2023-04-15T10:10:56.669Z,45.85
2023-04-15T10:11:56.656Z,31.99
2023-04-15T10:12:56.629Z,29.62
2023-04-15T10:13:56.630Z,37.06
2023-04-15T10:14:56.614Z,20.65
2023-04-15T10:15:56.634Z,34.13
2023-04-15T10:16:56.607Z,41.57
2023-04-15T10:17:56.694Z,33.82
2023-04-15T10:18:56.633Z,36.25
2023-04-15T10:19:56.605Z,29.94
2023-04-15T10:20:56.570Z,36.67
2023-04-15T10:21:56.549Z,34.08
2023-04-15T10:22:56.536Z,22.01
2023-04-15T10:23:56.603Z,34.33
2023-04-15T10:24:56.538Z,33.12
2023-04-15T10:25:56.499Z,35.68
2023-04-15T10:26:56.497Z,45.58
2023-04-15T10:27:56.478Z,36.12
2023-04-15T10:28:56.921Z,40.14
2023-04-15T10:29:56.510Z,29.32
2023-04-15T10:30:56.514Z,26.03
2023-04-15T10:31:56.438Z,36.99
2023-04-15T10:32:56.472Z,25.00
2023-04-15T10:33:56.431Z,26.08
2023-04-15T10:34:56.425Z,43.09
2023-04-15T10:35:56.449Z,47.05
2023-04-15T10:36:56.434Z,48.98
2023-04-15T10:37:56.438Z,41.71
2023-04-15T10:38:56.450Z,45.17
2023-04-15T10:39:56.465Z,52.52
2023-04-15T10:40:56.494Z,53.94
2023-04-15T10:41:56.507Z,56.31
2023-04-15T10:42:56.539Z,37.31
2023-04-15T10:43:56.575Z,41.16
2023-04-15T10:44:56.594Z,42.45
2023-04-15T10:45:56.606Z,55.20
2023-04-15T10:46:56.734Z,63.86
2023-04-15T10:47:56.663Z,57.17
2023-04-15T10:48:56.684Z,62.79
2023-04-15T10:49:56.733Z,69.44
2023-04-15T10:50:56.776Z,72.39
2023-04-15T10:51:56.789Z,62.31
2023-04-15T10:52:56.808Z,57.62
2023-04-15T10:53:56.829Z,39.08
2023-04-15T10:54:56.869Z,44.84
2023-04-15T10:55:56.889Z,67.73
2023-04-15T10:56:56.921Z,63.25
2023-04-15T10:57:56.944Z,57.55
2023-04-15T10:58:56.990Z,49.83
2023-04-15T10:59:57.208Z,57.80
2023-04-15T11:00:57.041Z,70.70
2023-04-15T11:01:57.171Z,42.29
2023-04-15T11:02:57.338Z,52.03
2023-04-15T11:03:57.366Z,46.48
2023-04-15T11:04:57.262Z,27.25
2023-04-15T11:05:57.237Z,25.00
2023-04-15T11:06:57.297Z,41.34
2023-04-15T11:07:57.338Z,35.39
2023-04-15T11:08:57.349Z,28.90
2023-04-15T11:09:57.372Z,31.48
2023-04-15T11:10:57.417Z,38.11
2023-04-15T11:11:57.444Z,25.23
2023-04-15T11:12:57.496Z,40.47
2023-04-15T11:13:57.497Z,57.17
2023-04-15T11:14:57.596Z,51.29
2023-04-15T11:15:57.622Z,59.63
2023-04-15T11:16:57.663Z,47.79
2023-04-15T11:17:57.789Z,44.97
2023-04-15T11:18:57.755Z,30.76
2023-04-15T11:19:57.825Z,38.27
2023-04-15T11:20:57.889Z,32.36
2023-04-15T11:21:57.908Z,28.22
2023-04-15T11:23:08.349Z,51.20
2023-04-15T11:23:57.930Z,51.21
2023-04-15T11:24:57.911Z,43.94
2023-04-15T11:25:57.940Z,49.06
2023-04-15T11:26:57.886Z,58.53
2023-04-15T11:27:57.891Z,36.34
2023-04-15T11:28:57.861Z,35.11
2023-04-15T11:29:57.846Z,34.27
2023-04-15T11:30:57.847Z,46.16
2023-04-15T11:31:57.844Z,64.62
2023-04-15T11:32:57.905Z,84.22
2023-04-15T11:33:57.798Z,77.52
2023-04-15T11:34:57.794Z,68.86
2023-04-15T11:35:57.777Z,72.46
2023-04-15T11:36:57.754Z,71.24
2023-04-15T11:37:57.747Z,80.37
2023-04-15T11:38:57.764Z,73.64
2023-04-15T11:39:57.730Z,79.92
2023-04-15T11:40:57.719Z,87.13
2023-04-15T11:41:57.713Z,85.51
2023-04-15T11:42:57.776Z,84.91
2023-04-15T11:43:57.688Z,96.17
2023-04-15T11:44:57.709Z,87.00
2023-04-15T11:45:57.761Z,89.59
2023-04-15T11:46:57.753Z,91.45
2023-04-15T11:47:57.859Z,116.81
2023-04-15T11:48:57.851Z,112.37
2023-04-15T11:49:57.920Z,104.66
2023-04-15T11:50:57.982Z,123.58
2023-04-15T11:51:58.051Z,130.60
2023-04-15T11:52:58.081Z,121.38
2023-04-15T11:53:58.113Z,129.28
2023-04-15T11:54:58.226Z,140.39
2023-04-15T11:55:58.231Z,140.14
2023-04-15T11:56:58.273Z,145.29
2023-04-15T11:57:58.333Z,136.94
2023-04-15T11:58:58.393Z,142.77
2023-04-15T11:59:58.474Z,149.58
2023-04-15T12:00:58.489Z,142.23
2023-04-15T12:01:58.589Z,136.03
2023-04-15T12:02:58.678Z,140.19
2023-04-15T12:03:58.692Z,143.50
2023-04-15T12:04:58.754Z,137.63
2023-04-15T12:05:58.710Z,138.76
2023-04-15T12:06:58.771Z,138.90
2023-04-15T12:07:58.801Z,159.98
2023-04-15T12:08:58.868Z,159.63
2023-04-15T12:09:58.903Z,153.09
2023-04-15T12:10:58.992Z,141.70
2023-04-15T12:11:59.021Z,148.30
2023-04-15T12:12:59.074Z,144.75
2023-04-15T12:13:59.176Z,146.01
2023-04-15T12:14:59.212Z,142.23
2023-04-15T12:15:59.284Z,140.57
2023-04-15T12:16:59.259Z,151.86
2023-04-15T12:17:59.317Z,161.90
2023-04-15T12:18:59.398Z,166.58
2023-04-15T12:19:59.427Z,183.42
2023-04-15T12:20:59.450Z,172.42
2023-04-15T12:22:00.421Z,165.69
2023-04-15T12:22:59.544Z,169.71
2023-04-15T12:23:59.567Z,178.01
2023-04-15T12:24:59.633Z,168.97
2023-04-15T12:25:59.674Z,172.48
2023-04-15T12:26:59.739Z,168.61
2023-04-15T12:27:59.755Z,159.76
2023-04-15T12:28:59.769Z,160.89
2023-04-15T12:29:59.798Z,167.69
2023-04-15T12:30:59.868Z,174.94
2023-04-15T12:31:59.864Z,174.90
2023-04-15T12:32:59.962Z,167.11
2023-04-15T12:33:59.957Z,163.43
2023-04-15T12:35:00.020Z,151.41
2023-04-15T12:36:00.104Z,164.79
2023-04-15T12:37:00.177Z,150.09
2023-04-15T12:38:00.167Z,145.35
2023-04-15T12:39:00.213Z,139.36
2023-04-15T12:40:00.228Z,163.19
2023-04-15T12:41:00.263Z,170.14
2023-04-15T12:42:00.514Z,160.75
2023-04-15T12:43:00.374Z,149.57
2023-04-15T12:44:00.388Z,142.95
2023-04-15T12:45:00.445Z,152.39
2023-04-15T12:46:00.494Z,164.70
2023-04-15T12:47:00.644Z,152.09
2023-04-15T12:48:00.657Z,156.77
2023-04-15T12:49:00.637Z,162.18
2023-04-15T12:50:00.653Z,174.40
2023-04-15T12:51:00.720Z,182.93